createdAt,value
2019-02-05T00:02:29.382Z,2.60
2019-02-05T00:05:01.140Z,2.20
2019-02-05T00:07:34.125Z,2.00
2019-02-05T00:10:07.294Z,2.47
2019-02-05T00:12:39.906Z,2.40
2019-02-05T00:15:11.763Z,2.30
2019-02-05T00:17:42.951Z,2.90
2019-02-05T00:20:14.465Z,2.30
2019-02-05T00:22:45.553Z,2.13
2019-02-05T00:25:16.872Z,2.10
2019-02-05T00:27:50.869Z,2.27
2019-02-05T00:30:21.815Z,2.70
2019-02-05T00:32:56.411Z,2.30
2019-02-05T00:35:27.791Z,3.00
2019-02-05T00:37:59.001Z,1.83
2019-02-05T00:40:30.405Z,2.20
2019-02-05T00:43:01.453Z,1.87
2019-02-05T00:45:32.754Z,1.77
2019-02-05T00:48:05.238Z,1.90
2019-02-05T00:50:36.667Z,2.03
2019-02-05T00:53:08.167Z,1.97
2019-02-05T00:55:39.460Z,2.10
2019-02-05T00:58:10.814Z,1.97
2019-02-05T01:00:41.975Z,1.80
2019-02-05T01:03:13.223Z,2.17
2019-02-05T01:05:44.781Z,1.87
2019-02-05T01:08:15.863Z,1.97
2019-02-05T01:10:47.235Z,2.27
2019-02-05T01:13:18.239Z,2.10
2019-02-05T01:15:49.622Z,1.90
2019-02-05T01:18:20.478Z,1.70
2019-02-05T01:20:51.879Z,2.30
2019-02-05T01:23:23.181Z,1.97
2019-02-05T01:25:54.573Z,1.90
2019-02-05T01:28:25.736Z,2.40
2019-02-05T01:30:57.176Z,2.40
2019-02-05T01:33:28.480Z,2.17
2019-02-05T01:35:59.727Z,2.20
2019-02-05T01:38:30.802Z,2.07
2019-02-05T01:41:02.010Z,2.10
2019-02-05T01:43:33.121Z,2.00
2019-02-05T01:46:04.540Z,2.07
2019-02-05T01:48:35.717Z,2.03
2019-02-05T01:51:07.131Z,1.83
2019-02-05T01:53:38.304Z,2.10
2019-02-05T01:56:11.384Z,1.90
2019-02-05T01:58:45.266Z,1.90
2019-02-05T02:01:16.313Z,1.90
2019-02-05T02:03:47.354Z,1.90
2019-02-05T02:06:18.386Z,1.70
2019-02-05T02:08:49.775Z,2.10
2019-02-05T02:11:20.618Z,2.37
2019-02-05T02:13:51.600Z,2.40
2019-02-05T02:16:23.180Z,1.80
2019-02-05T02:18:54.258Z,1.80
2019-02-05T02:21:25.610Z,2.20
2019-02-05T02:23:56.721Z,2.10
2019-02-05T02:26:28.025Z,1.70
2019-02-05T02:28:59.090Z,2.10
2019-02-05T02:31:30.310Z,2.20
2019-02-05T02:34:01.592Z,1.60
2019-02-05T02:36:32.719Z,2.10
2019-02-05T02:39:04.968Z,2.10
2019-02-05T02:41:36.233Z,2.00
2019-02-05T02:44:07.459Z,1.80
2019-02-05T02:46:38.536Z,2.00
2019-02-05T02:49:09.721Z,2.10
2019-02-05T02:51:41.302Z,2.80
2019-02-05T02:54:12.500Z,1.90
2019-02-05T02:56:43.724Z,2.07
2019-02-05T02:59:14.610Z,1.97
2019-02-05T03:01:45.809Z,2.60
2019-02-05T03:04:16.997Z,2.00
2019-02-05T03:06:48.425Z,1.60
2019-02-05T03:09:19.776Z,1.90
2019-02-05T03:11:51.109Z,2.00
2019-02-05T03:14:21.857Z,1.73
2019-02-05T03:16:53.360Z,1.97
2019-02-05T03:19:28.140Z,1.90
2019-02-05T03:21:59.788Z,1.80
2019-02-05T03:24:30.894Z,2.10
2019-02-05T03:27:02.050Z,1.97
2019-02-05T03:29:33.188Z,2.40
2019-02-05T03:32:04.361Z,2.10
2019-02-05T03:34:35.558Z,2.10
2019-02-05T03:37:07.452Z,2.03
2019-02-05T03:39:38.463Z,2.10
2019-02-05T03:42:09.645Z,2.47
2019-02-05T03:44:44.707Z,2.60
2019-02-05T03:47:16.454Z,2.20
2019-02-05T03:49:47.848Z,3.03
2019-02-05T03:52:23.532Z,2.70
2019-02-05T03:55:26.414Z,2.70
2019-02-05T03:58:32.378Z,3.23
2019-02-05T04:01:45.204Z,3.30
2019-02-05T04:04:57.446Z,2.90
2019-02-05T04:08:15.837Z,2.60
2019-02-05T04:11:22.351Z,2.87
2019-02-05T04:14:32.718Z,2.70
2019-02-05T04:17:53.568Z,3.00
2019-02-05T04:21:11.716Z,3.63
2019-02-05T04:24:23.500Z,3.40
2019-02-05T04:27:43.739Z,3.40
2019-02-05T04:31:01.093Z,2.90
2019-02-05T04:34:07.755Z,3.10
2019-02-05T04:37:03.732Z,3.47
2019-02-05T04:40:10.190Z,2.93
2019-02-05T04:43:23.214Z,2.50
2019-02-05T04:46:25.475Z,2.90
2019-02-05T04:49:32.243Z,2.90
2019-02-05T04:52:36.790Z,3.00
2019-02-05T04:55:25.500Z,4.27
2019-02-05T04:58:46.134Z,2.90
2019-02-05T05:01:43.592Z,3.60
2019-02-05T05:04:34.003Z,2.83
2019-02-05T05:07:23.726Z,3.37
2019-02-05T05:10:02.930Z,3.50
2019-02-05T05:12:34.160Z,3.40
2019-02-05T05:15:06.056Z,3.83
2019-02-05T05:17:37.357Z,2.83
2019-02-05T05:20:10.543Z,3.37
2019-02-05T05:22:41.960Z,3.40
2019-02-05T05:25:13.475Z,5.37
2019-02-05T05:27:45.041Z,3.80
2019-02-05T05:30:18.523Z,3.23
2019-02-05T05:32:51.030Z,3.80
2019-02-05T05:35:21.852Z,3.80
2019-02-05T05:37:53.088Z,3.97
2019-02-05T05:40:24.035Z,3.90
2019-02-05T05:42:55.038Z,4.47
2019-02-05T05:45:25.745Z,4.67
2019-02-05T05:47:57.068Z,5.07
2019-02-05T05:50:28.263Z,5.43
2019-02-05T05:52:59.355Z,5.70
2019-02-05T05:55:31.372Z,7.07
2019-02-05T05:58:02.635Z,4.83
2019-02-05T06:00:33.680Z,8.63
2019-02-05T06:03:04.907Z,5.67
2019-02-05T06:05:36.456Z,5.27
2019-02-05T06:08:08.409Z,4.30
2019-02-05T06:10:39.565Z,4.40
2019-02-05T06:13:10.691Z,4.93
2019-02-05T06:15:42.314Z,4.70
2019-02-05T06:18:14.457Z,5.03
2019-02-05T06:20:45.495Z,4.10
2019-02-05T06:23:16.395Z,4.70
2019-02-05T06:25:47.732Z,5.30
2019-02-05T06:28:19.009Z,4.17
2019-02-05T06:30:50.469Z,4.53
2019-02-05T06:33:23.628Z,5.17
2019-02-05T06:35:55.295Z,4.87
2019-02-05T06:38:28.616Z,5.30
2019-02-05T06:41:00.174Z,5.27
2019-02-05T06:43:32.469Z,6.07
2019-02-05T06:46:04.035Z,5.97
2019-02-05T06:48:35.747Z,7.17
2019-02-05T06:51:07.101Z,5.60
2019-02-05T06:53:38.609Z,5.80
2019-02-05T06:56:10.125Z,6.47
2019-02-05T06:58:46.539Z,6.20
2019-02-05T07:01:14.691Z,5.83
2019-02-05T07:03:49.549Z,5.63
2019-02-05T07:06:20.703Z,6.53
2019-02-05T07:08:52.004Z,5.60
2019-02-05T07:11:23.043Z,5.13
2019-02-05T07:13:54.433Z,6.00
2019-02-05T07:16:25.609Z,7.20
2019-02-05T07:18:57.035Z,6.50
2019-02-05T07:21:28.249Z,6.40
2019-02-05T07:23:59.377Z,7.37
2019-02-05T07:26:30.788Z,8.70
2019-02-05T07:29:02.277Z,6.10
2019-02-05T07:31:33.318Z,9.27
2019-02-05T07:34:04.929Z,7.50
2019-02-05T07:36:36.084Z,6.27
2019-02-05T07:39:09.841Z,6.10
2019-02-05T07:41:41.123Z,6.07
2019-02-05T07:44:12.320Z,6.80
2019-02-05T07:46:43.822Z,7.20
2019-02-05T07:49:14.629Z,11.90
2019-02-05T07:51:45.841Z,14.90
2019-02-05T07:54:17.529Z,8.33
2019-02-05T07:56:53.908Z,13.57
2019-02-05T07:59:25.160Z,9.53
2019-02-05T08:01:56.383Z,8.20
2019-02-05T08:04:27.531Z,7.37
2019-02-05T08:06:59.123Z,6.70
2019-02-05T08:09:30.632Z,6.60
2019-02-05T08:12:01.818Z,5.97
2019-02-05T08:14:33.268Z,5.83
2019-02-05T08:17:04.784Z,6.07
2019-02-05T08:19:40.775Z,6.53
2019-02-05T08:22:12.793Z,5.80
2019-02-05T08:24:44.097Z,6.30
2019-02-05T08:27:15.513Z,7.67
2019-02-05T08:29:46.749Z,6.20
2019-02-05T08:32:19.509Z,5.90
2019-02-05T08:34:50.756Z,7.00
2019-02-05T08:37:22.212Z,6.37
2019-02-05T08:39:53.607Z,6.40
2019-02-05T08:42:26.626Z,7.10
2019-02-05T08:44:58.553Z,6.90
2019-02-05T08:47:29.855Z,6.53
2019-02-05T08:50:01.530Z,8.60
2019-02-05T08:52:32.858Z,7.07
2019-02-05T08:55:04.709Z,6.10
2019-02-05T08:57:35.635Z,5.67
2019-02-05T09:00:09.668Z,6.67
2019-02-05T09:02:41.405Z,5.87
2019-02-05T09:05:12.713Z,5.80
2019-02-05T09:07:43.699Z,6.67
2019-02-05T09:10:18.454Z,6.00
2019-02-05T09:12:49.934Z,6.40
2019-02-05T09:15:29.062Z,5.53
2019-02-05T09:17:54.057Z,6.80
2019-02-05T09:20:25.288Z,14.10
2019-02-05T09:22:57.469Z,61.33
2019-02-05T09:25:28.636Z,6.70
2019-02-05T09:27:59.819Z,6.17
2019-02-05T09:30:33.829Z,6.47
2019-02-05T09:33:07.222Z,5.60
2019-02-05T09:35:39.503Z,5.97
2019-02-05T09:38:11.243Z,7.40
2019-02-05T09:40:42.936Z,7.33
2019-02-05T09:43:14.479Z,6.40
2019-02-05T09:45:45.705Z,8.10
2019-02-05T09:48:16.544Z,6.20
2019-02-05T09:50:47.754Z,6.10
2019-02-05T09:53:18.757Z,7.20
2019-02-05T09:55:49.845Z,6.77
2019-02-05T09:58:21.690Z,6.07
2019-02-05T10:00:52.962Z,5.57
2019-02-05T10:03:24.209Z,6.47
2019-02-05T10:06:00.862Z,6.30
2019-02-05T10:08:33.583Z,7.20
2019-02-05T10:11:05.295Z,6.20
2019-02-05T10:13:36.516Z,7.17
2019-02-05T10:16:08.435Z,7.00
2019-02-05T10:18:41.054Z,6.17
2019-02-05T10:21:12.517Z,6.97
2019-02-05T10:23:43.890Z,6.40
2019-02-05T10:26:15.531Z,6.50
2019-02-05T10:28:46.897Z,6.53
2019-02-05T10:31:17.746Z,6.50
2019-02-05T10:33:55.360Z,7.07
2019-02-05T10:36:21.505Z,6.60
2019-02-05T10:38:53.180Z,6.17
2019-02-05T10:41:24.145Z,7.03
2019-02-05T10:43:55.462Z,6.40
2019-02-05T10:46:26.891Z,6.47
2019-02-05T10:48:58.099Z,6.80
2019-02-05T10:51:29.584Z,6.50
2019-02-05T10:54:01.136Z,6.47
2019-02-05T10:56:32.478Z,6.57
2019-02-05T10:59:03.582Z,7.27
2019-02-05T11:01:34.995Z,5.90
2019-02-05T11:04:07.315Z,6.77
2019-02-05T11:06:39.848Z,7.30
2019-02-05T11:09:12.099Z,6.80
2019-02-05T11:11:43.147Z,5.43
2019-02-05T11:14:14.386Z,6.87
2019-02-05T11:16:45.693Z,6.60
2019-02-05T11:19:16.517Z,6.90
2019-02-05T11:21:47.833Z,6.00
2019-02-05T11:24:18.948Z,6.90
2019-02-05T11:26:50.636Z,6.77
2019-02-05T11:29:21.625Z,6.63
2019-02-05T11:31:52.857Z,6.13
2019-02-05T11:34:24.722Z,6.20
2019-02-05T11:36:56.146Z,5.93
2019-02-05T11:39:27.476Z,5.90
2019-02-05T11:41:59.025Z,6.10
2019-02-05T11:44:30.444Z,7.10
2019-02-05T11:47:03.866Z,6.50
2019-02-05T11:49:34.703Z,7.13
2019-02-05T11:52:09.729Z,6.70
2019-02-05T11:54:40.179Z,6.90
2019-02-05T11:57:11.251Z,6.20
2019-02-05T11:59:42.537Z,6.27
2019-02-05T12:02:14.617Z,7.10
2019-02-05T12:04:46.124Z,6.70
2019-02-05T12:07:17.422Z,6.73
2019-02-05T12:09:49.448Z,6.87
2019-02-05T12:12:20.459Z,7.80
2019-02-05T12:14:51.800Z,6.67
2019-02-05T12:17:22.716Z,7.10
2019-02-05T12:19:55.715Z,5.70
2019-02-05T12:22:26.875Z,6.40
2019-02-05T12:24:59.299Z,9.60
2019-02-05T12:27:30.744Z,6.87
2019-02-05T12:30:05.773Z,7.83
2019-02-05T12:32:36.894Z,6.73
2019-02-05T12:35:08.249Z,5.80
2019-02-05T12:37:39.527Z,7.27
2019-02-05T12:40:12.263Z,6.80
2019-02-05T12:42:44.023Z,7.10
2019-02-05T12:45:20.754Z,7.17
2019-02-05T12:47:52.071Z,7.40
2019-02-05T12:50:25.558Z,6.77
2019-02-05T12:52:57.070Z,6.40
2019-02-05T12:55:28.831Z,6.60
2019-02-05T12:58:00.976Z,7.07
2019-02-05T13:00:34.820Z,6.07
2019-02-05T13:03:06.265Z,7.30
2019-02-05T13:05:38.783Z,8.17
2019-02-05T13:08:13.569Z,8.40
2019-02-05T13:10:49.670Z,6.80
2019-02-05T13:13:20.979Z,6.10
2019-02-05T13:15:58.993Z,6.17
2019-02-05T13:18:31.243Z,6.80
2019-02-05T13:21:02.388Z,6.53
2019-02-05T13:23:41.344Z,9.57
2019-02-05T13:26:12.501Z,9.83
2019-02-05T13:28:44.040Z,8.30
2019-02-05T13:31:15.251Z,9.53
2019-02-05T13:33:46.441Z,8.80
2019-02-05T13:36:22.516Z,9.63
2019-02-05T13:38:55.792Z,8.50
2019-02-05T13:41:29.124Z,8.33
2019-02-05T13:44:00.692Z,8.30
2019-02-05T13:46:32.683Z,9.47
2019-02-05T13:49:04.208Z,9.30
2019-02-05T13:51:36.010Z,7.60
2019-02-05T13:54:07.527Z,8.30
2019-02-05T13:56:39.031Z,8.90
2019-02-05T13:59:10.229Z,10.23
2019-02-05T14:01:44.437Z,8.30
2019-02-05T14:04:15.045Z,7.70
2019-02-05T14:06:46.449Z,6.90
2019-02-05T14:09:17.812Z,8.87
2019-02-05T14:11:49.340Z,8.13
2019-02-05T14:14:20.322Z,7.93
2019-02-05T14:16:53.432Z,15.40
2019-02-05T14:19:24.951Z,7.83
2019-02-05T14:21:56.181Z,8.50
2019-02-05T14:24:27.483Z,8.43
2019-02-05T14:26:59.069Z,7.73
2019-02-05T14:29:30.154Z,7.50
2019-02-05T14:32:01.702Z,7.83
2019-02-05T14:34:33.622Z,7.70
2019-02-05T14:37:06.001Z,7.47
2019-02-05T14:39:37.893Z,7.83
2019-02-05T14:42:09.862Z,8.00
2019-02-05T14:44:42.206Z,7.10
2019-02-05T14:47:13.536Z,7.50
2019-02-05T14:49:45.118Z,8.00
2019-02-05T14:52:17.277Z,9.45
2019-02-05T14:54:49.192Z,7.90
2019-02-05T14:57:20.711Z,9.30
2019-02-05T14:59:52.465Z,10.13
2019-02-05T15:02:28.953Z,10.07
2019-02-05T15:05:01.033Z,11.47
2019-02-05T15:07:33.030Z,8.67
2019-02-05T15:10:05.188Z,7.83
2019-02-05T15:12:36.795Z,7.12
2019-02-05T15:15:11.534Z,7.87
2019-02-05T15:17:42.866Z,6.97
2019-02-05T15:20:46.180Z,12.53
2019-02-05T15:23:17.859Z,8.07
2019-02-05T15:25:49.750Z,7.20
2019-02-05T15:28:20.785Z,7.17
2019-02-05T15:30:54.649Z,7.13
2019-02-05T15:34:03.475Z,7.40
2019-02-05T15:36:38.397Z,8.17
2019-02-05T15:39:18.506Z,7.60
2019-02-05T15:41:50.442Z,7.37
2019-02-05T15:44:21.291Z,7.27
2019-02-05T15:46:52.643Z,7.40
2019-02-05T15:49:26.896Z,8.40
2019-02-05T15:51:57.268Z,6.93
2019-02-05T15:54:28.452Z,8.40
2019-02-05T15:56:59.863Z,7.83
2019-02-05T15:59:31.308Z,7.47
2019-02-05T16:02:06.375Z,8.13
2019-02-05T16:04:35.445Z,7.20
2019-02-05T16:07:09.550Z,9.50
2019-02-05T16:09:41.090Z,15.70
2019-02-05T16:12:12.649Z,8.50
2019-02-05T16:14:44.279Z,7.37
2019-02-05T16:17:15.709Z,7.63
2019-02-05T16:19:47.017Z,7.30
2019-02-05T16:22:17.863Z,6.80
2019-02-05T16:24:49.415Z,8.23
2019-02-05T16:27:20.669Z,7.10
2019-02-05T16:29:52.167Z,9.00
2019-02-05T16:32:23.958Z,7.63
2019-02-05T16:34:55.759Z,7.20
2019-02-05T16:37:27.412Z,7.20
2019-02-05T16:39:58.718Z,7.43
2019-02-05T16:42:29.992Z,7.40
2019-02-05T16:45:01.503Z,7.03
2019-02-05T16:47:33.043Z,8.77
2019-02-05T16:50:04.929Z,9.10
2019-02-05T16:52:36.567Z,9.30
2019-02-05T16:55:08.248Z,9.20
2019-02-05T16:57:39.728Z,7.30
2019-02-05T17:00:17.716Z,7.70
2019-02-05T17:02:49.242Z,8.83
2019-02-05T17:05:20.907Z,8.30
2019-02-05T17:07:52.299Z,8.37
2019-02-05T17:10:23.194Z,7.47
2019-02-05T17:12:54.745Z,9.40
2019-02-05T17:15:26.048Z,8.43
2019-02-05T17:17:57.709Z,7.50
2019-02-05T17:20:30.525Z,9.10
2019-02-05T17:23:02.384Z,9.63
2019-02-05T17:25:36.061Z,8.00
2019-02-05T17:28:08.157Z,7.90
2019-02-05T17:30:39.947Z,8.17
2019-02-05T17:33:12.324Z,8.00
2019-02-05T17:35:44.153Z,10.40
2019-02-05T17:38:16.270Z,8.73
2019-02-05T17:40:47.663Z,10.10
2019-02-05T17:43:18.730Z,9.80
2019-02-05T17:45:50.869Z,9.03
2019-02-05T17:48:22.292Z,8.87
2019-02-05T17:50:53.359Z,8.17
2019-02-05T17:53:24.892Z,10.00
2019-02-05T17:55:56.283Z,8.80
2019-02-05T17:58:27.330Z,9.70
2019-02-05T18:01:05.878Z,8.30
2019-02-05T18:03:37.213Z,7.80
2019-02-05T18:06:08.851Z,10.00
2019-02-05T18:08:40.317Z,11.13
2019-02-05T18:11:12.216Z,11.83
2019-02-05T18:13:44.245Z,9.07
2019-02-05T18:16:18.325Z,8.53
2019-02-05T18:18:50.285Z,8.27
2019-02-05T18:21:21.127Z,9.17
2019-02-05T18:23:52.884Z,10.00
2019-02-05T18:26:24.236Z,9.50
2019-02-05T18:28:55.506Z,7.20
2019-02-05T18:31:26.324Z,8.97
2019-02-05T18:33:57.479Z,6.50
2019-02-05T18:36:32.217Z,7.40
2019-02-05T18:39:03.598Z,8.73
2019-02-05T18:41:34.965Z,8.93
2019-02-05T18:44:06.574Z,8.57
2019-02-05T18:46:39.094Z,8.73
2019-02-05T18:49:10.986Z,9.10
2019-02-05T18:51:42.632Z,9.23
2019-02-05T18:54:14.075Z,7.57
2019-02-05T18:56:45.943Z,7.97
2019-02-05T18:59:19.990Z,8.90
2019-02-05T19:01:51.487Z,14.00
2019-02-05T19:04:22.429Z,7.83
2019-02-05T19:06:53.799Z,7.70
2019-02-05T19:09:24.801Z,7.27
2019-02-05T19:12:02.645Z,7.47
2019-02-05T19:14:34.798Z,7.73
2019-02-05T19:17:07.776Z,7.50
2019-02-05T19:19:38.888Z,6.67
2019-02-05T19:22:11.648Z,6.57
2019-02-05T19:24:48.378Z,6.30
2019-02-05T19:27:20.625Z,6.53
2019-02-05T19:29:51.974Z,6.80
2019-02-05T19:32:26.597Z,8.10
2019-02-05T19:34:57.668Z,7.67
2019-02-05T19:45:55.900Z,10.27
2019-02-05T19:48:31.883Z,10.73
2019-02-05T19:51:04.005Z,10.43
2019-02-05T19:53:35.363Z,14.47
2019-02-05T19:56:07.486Z,10.07
2019-02-05T19:58:39.034Z,12.30
2019-02-05T20:01:10.077Z,10.50
2019-02-05T20:03:41.252Z,11.70
2019-02-05T20:06:12.525Z,11.30
2019-02-05T20:08:43.823Z,11.30
2019-02-05T20:11:15.246Z,11.53
2019-02-05T20:13:46.394Z,13.00
2019-02-05T20:16:17.953Z,13.63
2019-02-05T20:18:49.361Z,18.70
2019-02-05T20:21:21.709Z,15.40
2019-02-05T20:23:53.383Z,13.20
2019-02-05T20:26:24.803Z,15.80
2019-02-05T20:28:55.940Z,14.30
2019-02-05T20:31:26.825Z,11.93
2019-02-05T20:33:58.240Z,14.20
2019-02-05T20:36:29.250Z,15.10
2019-02-05T20:39:00.706Z,20.90
2019-02-05T20:41:31.795Z,15.20
2019-02-05T20:44:03.311Z,14.70
2019-02-05T20:46:34.792Z,12.80
2019-02-05T20:49:06.212Z,13.40
2019-02-05T20:51:37.500Z,18.80
2019-02-05T20:54:09.695Z,15.40
2019-02-05T20:56:41.202Z,15.77
2019-02-05T21:00:15.443Z,14.17
2019-02-05T21:02:50.835Z,13.83
2019-02-05T21:05:21.927Z,13.27
2019-02-05T21:07:53.429Z,14.63
2019-02-05T21:10:24.986Z,14.00
2019-02-05T21:12:56.682Z,15.47
2019-02-05T21:15:28.498Z,12.70
2019-02-05T21:18:00.384Z,12.70
2019-02-05T21:20:34.033Z,16.77
2019-02-05T21:23:05.531Z,15.20
2019-02-05T21:25:36.831Z,17.80
2019-02-05T21:28:08.300Z,14.70
2019-02-05T21:30:39.979Z,15.70
2019-02-05T21:33:11.739Z,14.07
2019-02-05T21:35:44.322Z,14.00
2019-02-05T21:38:17.634Z,12.60
2019-02-05T21:40:48.944Z,16.50
2019-02-05T21:43:19.960Z,12.60
2019-02-05T21:45:51.848Z,14.17
2019-02-05T21:48:23.070Z,12.33
2019-02-05T21:50:54.530Z,12.30
2019-02-05T21:53:25.965Z,13.77
2019-02-05T21:55:57.361Z,13.53
2019-02-05T21:58:32.176Z,14.40
2019-02-05T22:01:04.512Z,14.67
2019-02-05T22:03:36.295Z,15.23
2019-02-05T22:06:07.503Z,14.20
2019-02-05T22:08:38.800Z,18.10
2019-02-05T22:11:10.282Z,16.87
2019-02-05T22:13:42.239Z,13.93
2019-02-05T22:16:13.841Z,14.53
2019-02-05T22:18:45.229Z,14.97
2019-02-05T22:21:16.668Z,14.57
2019-02-05T22:23:47.960Z,15.40
2019-02-05T22:26:26.563Z,14.13
2019-02-05T22:28:58.587Z,14.43
2019-02-05T22:31:30.158Z,14.70
2019-02-05T22:34:01.315Z,14.40
2019-02-05T22:36:33.710Z,15.27
2019-02-05T22:39:09.004Z,12.87
2019-02-05T22:41:42.518Z,12.67
2019-02-05T22:44:15.036Z,13.57
2019-02-05T22:46:47.969Z,13.40
2019-02-05T22:49:18.951Z,15.00
2019-02-05T22:51:50.838Z,15.27
2019-02-05T22:54:22.583Z,14.60
2019-02-05T22:56:53.891Z,15.33
2019-02-05T22:59:25.061Z,13.90
2019-02-05T23:01:58.896Z,13.50
2019-02-05T23:05:01.454Z,14.10
2019-02-05T23:07:33.053Z,13.57
2019-02-05T23:10:22.378Z,13.67
2019-02-05T23:13:01.785Z,13.37
2019-02-05T23:15:33.050Z,13.83
2019-02-05T23:18:05.128Z,12.80
2019-02-05T23:20:36.507Z,13.20
2019-02-05T23:23:07.725Z,19.27
2019-02-05T23:25:38.920Z,13.50
2019-02-05T23:28:09.935Z,14.00
2019-02-05T23:30:41.178Z,13.47
2019-02-05T23:33:12.706Z,12.77
2019-02-05T23:35:43.954Z,13.47
2019-02-05T23:38:15.581Z,14.30
2019-02-05T23:40:46.953Z,16.07
2019-02-05T23:43:18.695Z,16.83
2019-02-05T23:46:00.961Z,17.40
2019-02-05T23:48:23.406Z,14.17
2019-02-05T23:50:54.874Z,14.83
2019-02-05T23:53:25.938Z,15.30
2019-02-05T23:55:57.370Z,13.73
2019-02-05T23:58:30.198Z,12.63
